createdAt,value
2019-02-20T00:01:31.657Z,7.50
2019-02-20T00:04:00.715Z,7.50
2019-02-20T00:06:29.099Z,7.50
2019-02-20T00:08:57.529Z,7.60
2019-02-20T00:11:26.670Z,7.50
2019-02-20T00:13:54.928Z,7.50
2019-02-20T00:16:23.257Z,7.50
2019-02-20T00:18:52.310Z,7.50
2019-02-20T00:21:20.682Z,7.50
2019-02-20T00:23:49.059Z,7.50
2019-02-20T00:26:17.345Z,7.40
2019-02-20T00:28:45.753Z,7.40
2019-02-20T00:31:14.132Z,7.30
2019-02-20T00:33:42.415Z,7.30
2019-02-20T00:36:11.474Z,7.30
2019-02-20T00:38:39.774Z,7.30
2019-02-20T00:41:08.064Z,7.40
2019-02-20T00:43:36.338Z,7.30
2019-02-20T00:46:07.091Z,7.30
2019-02-20T00:48:39.911Z,7.30
2019-02-20T00:51:08.828Z,7.40
2019-02-20T00:53:41.482Z,7.20
2019-02-20T00:56:09.855Z,7.20
2019-02-20T00:58:38.155Z,7.20
2019-02-20T01:01:06.507Z,7.20
2019-02-20T01:03:34.802Z,7.20
2019-02-20T01:06:04.904Z,7.20
2019-02-20T01:08:31.479Z,7.20
2019-02-20T01:10:59.823Z,7.20
2019-02-20T01:13:28.121Z,7.10
2019-02-20T01:15:56.505Z,7.20
2019-02-20T01:18:25.569Z,7.30
2019-02-20T01:20:53.939Z,7.30
2019-02-20T01:23:22.310Z,7.20
2019-02-20T01:25:50.704Z,7.30
2019-02-20T01:28:19.015Z,7.20
2019-02-20T01:30:48.123Z,7.30
2019-02-20T01:33:16.648Z,7.30
2019-02-20T01:35:44.866Z,7.30
2019-02-20T01:38:14.024Z,7.20
2019-02-20T01:40:42.332Z,7.20
2019-02-20T01:43:10.676Z,7.30
2019-02-20T01:45:39.035Z,7.20
2019-02-20T01:48:07.540Z,7.20
2019-02-20T01:50:35.814Z,7.10
2019-02-20T01:53:10.383Z,7.20
2019-02-20T01:55:32.492Z,7.20
2019-02-20T01:58:00.742Z,7.20
2019-02-20T02:00:29.035Z,7.30
2019-02-20T02:02:57.363Z,7.30
2019-02-20T02:05:26.526Z,7.20
2019-02-20T02:07:54.858Z,7.10
2019-02-20T02:10:23.159Z,7.10
2019-02-20T02:12:51.542Z,7.10
2019-02-20T02:15:20.723Z,7.10
2019-02-20T02:17:48.171Z,7.20
2019-02-20T02:20:17.295Z,7.20
2019-02-20T02:22:46.355Z,7.20
2019-02-20T02:25:14.729Z,7.10
2019-02-20T02:27:43.123Z,7.30
2019-02-20T02:30:11.496Z,7.20
2019-02-20T02:32:39.870Z,7.20
2019-02-20T02:35:08.249Z,7.20
2019-02-20T02:37:36.660Z,7.30
2019-02-20T02:40:05.040Z,7.20
2019-02-20T02:42:33.371Z,7.20
2019-02-20T02:45:01.837Z,7.20
2019-02-20T02:47:30.168Z,7.20
2019-02-20T02:49:59.266Z,7.10
2019-02-20T02:52:27.566Z,7.10
2019-02-20T02:54:55.893Z,7.10
2019-02-20T02:57:24.186Z,7.20
2019-02-20T02:59:53.245Z,7.00
2019-02-20T03:02:21.628Z,7.00
2019-02-20T03:04:49.987Z,6.90
2019-02-20T03:07:18.268Z,6.90
2019-02-20T03:09:46.656Z,6.80
2019-02-20T03:12:14.990Z,6.80
2019-02-20T03:14:43.347Z,6.80
2019-02-20T03:17:11.637Z,6.80
2019-02-20T03:19:39.958Z,6.80
2019-02-20T03:22:08.247Z,6.80
2019-02-20T03:24:36.558Z,6.80
2019-02-20T03:27:05.842Z,6.60
2019-02-20T03:29:34.190Z,6.60
2019-02-20T03:32:02.494Z,6.60
2019-02-20T03:34:30.763Z,6.70
2019-02-20T03:36:59.106Z,6.70
2019-02-20T03:39:27.487Z,6.90
2019-02-20T03:41:55.786Z,7.00
2019-02-20T03:44:24.091Z,7.00
2019-02-20T03:46:53.254Z,7.00
2019-02-20T03:49:21.569Z,7.00
2019-02-20T03:51:50.715Z,6.80
2019-02-20T03:54:19.012Z,6.90
2019-02-20T03:56:47.328Z,6.70
2019-02-20T03:59:15.664Z,6.70
2019-02-20T04:01:43.965Z,6.60
2019-02-20T04:04:13.119Z,6.40
2019-02-20T04:06:41.540Z,6.40
2019-02-20T04:09:09.768Z,6.50
2019-02-20T04:11:38.149Z,6.60
2019-02-20T04:14:06.423Z,6.60
2019-02-20T04:16:34.711Z,6.60
2019-02-20T04:19:03.004Z,6.60
2019-02-20T04:21:32.067Z,6.60
2019-02-20T04:24:02.893Z,6.60
2019-02-20T04:26:29.127Z,6.60
2019-02-20T04:28:57.420Z,6.70
2019-02-20T04:31:25.780Z,6.70
2019-02-20T04:33:54.155Z,6.80
2019-02-20T04:36:22.569Z,6.80
2019-02-20T04:38:50.863Z,6.70
2019-02-20T04:41:19.902Z,6.60
2019-02-20T04:43:48.244Z,6.60
2019-02-20T04:46:16.552Z,6.40
2019-02-20T04:48:44.891Z,6.50
2019-02-20T04:51:13.211Z,6.50
2019-02-20T04:53:41.502Z,6.50
2019-02-20T04:56:09.825Z,6.70
2019-02-20T04:58:38.107Z,6.70
2019-02-20T05:01:06.436Z,6.60
2019-02-20T05:03:34.741Z,6.50
2019-02-20T05:06:03.100Z,6.60
2019-02-20T05:08:31.449Z,6.70
2019-02-20T05:10:59.822Z,6.60
2019-02-20T05:13:28.115Z,6.50
2019-02-20T05:15:56.506Z,6.40
2019-02-20T05:18:24.851Z,6.40
2019-02-20T05:20:53.263Z,6.40
2019-02-20T05:23:21.611Z,6.50
2019-02-20T05:25:49.922Z,6.50
2019-02-20T05:28:18.313Z,6.40
2019-02-20T05:30:46.664Z,6.50
2019-02-20T05:33:14.927Z,6.60
2019-02-20T05:35:43.331Z,6.60
2019-02-20T05:38:11.649Z,6.60
2019-02-20T05:40:39.937Z,6.50
2019-02-20T05:43:08.211Z,6.50
2019-02-20T05:45:49.039Z,6.50
2019-02-20T05:48:17.372Z,6.50
2019-02-20T05:50:45.653Z,6.60
2019-02-20T05:53:13.944Z,6.50
2019-02-20T05:55:42.192Z,6.50
2019-02-20T05:58:10.522Z,6.50
2019-02-20T06:00:39.559Z,6.60
2019-02-20T06:03:07.847Z,6.60
2019-02-20T06:05:36.339Z,6.60
2019-02-20T06:08:04.805Z,6.50
2019-02-20T06:10:33.208Z,6.50
2019-02-20T06:13:01.472Z,6.50
2019-02-20T06:15:29.722Z,6.50
2019-02-20T06:17:58.071Z,6.50
2019-02-20T06:20:26.382Z,6.50
2019-02-20T06:22:54.668Z,6.50
2019-02-20T06:25:22.991Z,6.50
2019-02-20T06:27:52.018Z,6.50
2019-02-20T06:30:20.295Z,6.50
2019-02-20T06:32:48.674Z,6.40
2019-02-20T06:35:16.963Z,6.40
2019-02-20T06:37:45.331Z,6.50
2019-02-20T06:40:13.710Z,6.60
2019-02-20T06:42:42.047Z,6.50
2019-02-20T06:45:11.082Z,6.60
2019-02-20T06:47:39.399Z,6.60
2019-02-20T06:50:08.565Z,6.60
2019-02-20T06:52:36.847Z,6.60
2019-02-20T06:55:06.024Z,6.70
2019-02-20T06:57:34.282Z,6.80
2019-02-20T07:00:02.666Z,6.80
2019-02-20T07:02:31.002Z,6.80
2019-02-20T07:05:11.313Z,6.80
2019-02-20T07:07:41.256Z,6.80
2019-02-20T07:10:21.474Z,6.80
2019-02-20T07:12:49.855Z,6.80
2019-02-20T07:18:25.979Z,6.90
2019-02-20T07:21:14.731Z,6.80
2019-02-20T07:23:47.575Z,6.80
2019-02-20T07:26:21.860Z,6.80
2019-02-20T07:28:56.606Z,7.00
2019-02-20T07:31:24.991Z,7.10
2019-02-20T07:33:53.266Z,7.10
2019-02-20T07:36:21.649Z,7.20
2019-02-20T07:38:49.926Z,7.30
2019-02-20T07:41:18.328Z,7.40
2019-02-20T07:43:46.675Z,7.40
2019-02-20T07:46:15.365Z,7.40
2019-02-20T07:48:43.639Z,7.40
2019-02-20T07:51:12.017Z,7.40
2019-02-20T07:53:40.382Z,7.50
2019-02-20T07:56:08.683Z,7.50
2019-02-20T07:58:37.077Z,7.40
2019-02-20T08:01:05.382Z,7.40
2019-02-20T08:03:33.693Z,7.20
2019-02-20T08:06:02.021Z,7.00
2019-02-20T08:08:31.110Z,7.10
2019-02-20T08:11:00.349Z,7.20
2019-02-20T08:13:28.653Z,7.20
2019-02-20T08:15:56.973Z,7.60
2019-02-20T08:18:25.295Z,7.70
2019-02-20T08:20:53.566Z,7.60
2019-02-20T08:23:21.943Z,7.40
2019-02-20T08:25:50.235Z,7.40
2019-02-20T08:28:18.632Z,7.60
2019-02-20T08:30:46.988Z,7.60
2019-02-20T08:33:15.367Z,7.60
2019-02-20T08:35:43.669Z,7.70
2019-02-20T08:38:12.747Z,8.00
2019-02-20T08:40:41.145Z,7.90
2019-02-20T08:43:10.203Z,8.20
2019-02-20T08:45:38.505Z,8.10
2019-02-20T08:48:06.767Z,8.30
2019-02-20T08:50:35.020Z,8.30
2019-02-20T08:53:03.399Z,8.00
2019-02-20T08:55:32.517Z,7.90
2019-02-20T08:58:00.191Z,8.00
2019-02-20T09:00:28.509Z,8.10
2019-02-20T09:02:56.808Z,8.20
2019-02-20T09:05:25.237Z,8.40
2019-02-20T09:07:54.317Z,8.30
2019-02-20T09:10:23.358Z,8.30
2019-02-20T09:12:51.645Z,8.30
2019-02-20T09:15:20.044Z,8.20
2019-02-20T09:17:48.334Z,8.30
2019-02-20T09:20:17.378Z,8.30
2019-02-20T09:22:45.702Z,8.30
2019-02-20T09:25:19.770Z,8.30
2019-02-20T09:27:43.898Z,8.30
2019-02-20T09:30:12.952Z,8.50
2019-02-20T09:32:41.252Z,8.60
2019-02-20T09:35:11.148Z,8.70
2019-02-20T09:37:39.440Z,8.70
2019-02-20T09:40:17.875Z,8.90
2019-02-20T09:42:46.938Z,9.20
2019-02-20T09:45:15.318Z,9.20
2019-02-20T09:47:43.619Z,9.90
2019-02-20T09:50:11.908Z,10.90
2019-02-20T09:52:40.203Z,11.70
2019-02-20T09:55:08.519Z,12.00
2019-02-20T09:57:36.887Z,12.00
2019-02-20T10:00:14.080Z,12.40
2019-02-20T10:02:42.451Z,12.50
2019-02-20T10:05:10.726Z,12.60
2019-02-20T10:07:39.049Z,13.20
2019-02-20T10:10:09.116Z,12.80
2019-02-20T10:12:37.415Z,12.70
2019-02-20T10:15:07.113Z,12.80
2019-02-20T10:17:35.410Z,12.20
2019-02-20T10:20:04.008Z,11.70
2019-02-20T10:22:32.243Z,11.80
2019-02-20T10:25:00.618Z,11.60
2019-02-20T10:27:28.953Z,11.70
2019-02-20T10:29:57.249Z,12.10
2019-02-20T10:32:25.643Z,12.60
2019-02-20T10:34:54.028Z,12.40
2019-02-20T10:37:22.407Z,12.30
2019-02-20T10:39:50.672Z,12.60
2019-02-20T10:42:18.990Z,12.60
2019-02-20T10:44:48.157Z,12.00
2019-02-20T10:47:16.451Z,12.00
2019-02-20T10:49:44.719Z,12.10
2019-02-20T10:52:13.004Z,12.80
2019-02-20T10:54:42.075Z,12.80
2019-02-20T10:57:10.361Z,12.80
2019-02-20T10:59:38.682Z,12.30
2019-02-20T11:02:06.973Z,11.50
2019-02-20T11:04:35.403Z,11.60
2019-02-20T11:07:03.693Z,12.00
2019-02-20T11:09:32.002Z,11.90
2019-02-20T11:12:00.248Z,11.70
2019-02-20T11:14:29.353Z,11.90
2019-02-20T11:16:57.677Z,11.80
2019-02-20T11:19:25.941Z,12.00
2019-02-20T11:21:54.361Z,11.80
2019-02-20T11:24:23.403Z,11.30
2019-02-20T11:26:54.999Z,11.30
2019-02-20T11:29:20.808Z,11.20
2019-02-20T11:31:49.137Z,11.20
2019-02-20T11:34:17.461Z,11.30
2019-02-20T11:36:45.734Z,11.30
2019-02-20T11:39:15.631Z,11.20
2019-02-20T11:41:43.927Z,11.20
2019-02-20T11:44:20.843Z,11.30
2019-02-20T11:46:42.059Z,11.30
2019-02-20T11:49:10.517Z,11.20
2019-02-20T11:51:38.831Z,11.50
2019-02-20T11:54:07.115Z,11.30
2019-02-20T11:56:35.532Z,11.10
2019-02-20T11:59:03.817Z,11.00
2019-02-20T12:01:32.867Z,10.30
2019-02-20T12:04:01.151Z,10.30
2019-02-20T12:06:29.523Z,10.20
2019-02-20T12:08:57.833Z,10.20
2019-02-20T12:11:26.092Z,10.60
2019-02-20T12:13:54.383Z,10.40
2019-02-20T12:16:22.735Z,10.30
2019-02-20T12:18:50.998Z,10.40
2019-02-20T12:21:19.292Z,10.50
2019-02-20T12:23:47.935Z,10.40
2019-02-20T12:26:16.240Z,10.30
2019-02-20T12:28:44.544Z,10.50
2019-02-20T12:31:12.891Z,10.90
2019-02-20T12:33:41.272Z,11.50
2019-02-20T12:36:09.683Z,11.30
2019-02-20T12:38:37.969Z,11.20
2019-02-20T12:41:07.082Z,10.90
2019-02-20T12:43:36.217Z,11.00
2019-02-20T12:46:05.839Z,11.00
2019-02-20T12:48:34.229Z,10.80
2019-02-20T12:51:02.599Z,10.60
2019-02-20T12:53:30.883Z,10.70
2019-02-20T12:56:00.703Z,10.80
2019-02-20T12:58:29.855Z,10.80
2019-02-20T13:00:58.169Z,10.80
2019-02-20T13:03:26.527Z,10.80
2019-02-20T13:05:54.796Z,10.70
2019-02-20T13:08:23.175Z,10.90
2019-02-20T13:10:51.555Z,10.90
2019-02-20T13:13:19.936Z,11.00
2019-02-20T13:15:48.196Z,10.80
2019-02-20T13:18:16.564Z,10.80
2019-02-20T13:20:45.702Z,10.60
2019-02-20T13:23:14.033Z,10.60
2019-02-20T13:25:42.330Z,10.50
2019-02-20T13:28:10.642Z,10.70
2019-02-20T13:30:39.903Z,10.30
2019-02-20T13:33:09.242Z,10.30
2019-02-20T13:35:37.502Z,10.30
2019-02-20T13:38:05.824Z,10.30
2019-02-20T13:40:34.100Z,10.50
2019-02-20T13:43:02.385Z,10.60
2019-02-20T13:45:30.703Z,10.60
2019-02-20T13:47:59.789Z,10.90
2019-02-20T13:50:28.148Z,10.90
2019-02-20T13:52:56.443Z,10.90
2019-02-20T13:55:34.070Z,11.10
2019-02-20T13:57:53.071Z,11.20
2019-02-20T14:00:21.356Z,11.30
2019-02-20T14:02:49.659Z,11.20
2019-02-20T14:05:18.722Z,11.40
2019-02-20T14:07:47.096Z,11.40
2019-02-20T14:10:15.388Z,11.30
2019-02-20T14:12:43.686Z,11.10
2019-02-20T14:15:12.771Z,11.20
2019-02-20T14:17:41.031Z,11.20
2019-02-20T14:20:09.387Z,11.30
2019-02-20T14:22:37.771Z,11.10
2019-02-20T14:25:07.075Z,11.10
2019-02-20T14:27:34.425Z,11.00
2019-02-20T14:30:02.726Z,11.00
2019-02-20T14:32:31.797Z,11.10
2019-02-20T14:35:00.329Z,11.10
2019-02-20T14:37:29.274Z,11.30
2019-02-20T14:39:57.738Z,11.30
2019-02-20T14:42:26.137Z,11.30
2019-02-20T14:44:54.472Z,11.30
2019-02-20T14:47:23.599Z,11.30
2019-02-20T14:49:51.982Z,11.30
2019-02-20T14:52:20.348Z,11.00
2019-02-20T14:54:48.737Z,10.90
2019-02-20T14:57:19.517Z,10.90
2019-02-20T14:59:45.483Z,10.80
2019-02-20T15:02:13.947Z,10.70
2019-02-20T15:04:42.283Z,10.60
2019-02-20T15:07:11.334Z,10.60
2019-02-20T15:09:39.707Z,10.60
2019-02-20T15:12:08.126Z,10.50
2019-02-20T15:14:37.291Z,10.50
2019-02-20T15:17:05.625Z,10.40
2019-02-20T15:19:33.973Z,10.40
2019-02-20T15:22:02.326Z,10.40
2019-02-20T15:24:30.707Z,10.50
2019-02-20T15:26:58.991Z,10.50
2019-02-20T15:29:27.298Z,10.50
2019-02-20T15:31:55.591Z,10.50
2019-02-20T15:34:23.919Z,10.60
2019-02-20T15:36:52.235Z,10.50
2019-02-20T15:39:20.700Z,10.40
2019-02-20T15:41:49.806Z,10.40
2019-02-20T15:44:18.084Z,10.40
2019-02-20T15:46:46.539Z,10.40
2019-02-20T15:49:15.595Z,10.40
2019-02-20T15:51:43.941Z,10.40
2019-02-20T15:54:12.266Z,10.30
2019-02-20T15:56:40.539Z,10.30
2019-02-20T15:59:08.826Z,10.30
2019-02-20T16:01:37.132Z,10.30
2019-02-20T16:04:05.434Z,10.10
2019-02-20T16:06:33.743Z,10.00
2019-02-20T16:09:02.048Z,10.00
2019-02-20T16:11:30.552Z,10.10
2019-02-20T16:13:59.585Z,10.10
2019-02-20T16:16:28.312Z,10.10
2019-02-20T16:18:56.242Z,10.00
2019-02-20T16:21:26.043Z,10.00
2019-02-20T16:23:54.332Z,10.00
2019-02-20T16:26:22.634Z,10.00
2019-02-20T16:28:51.699Z,9.80
2019-02-20T16:31:20.071Z,9.80
2019-02-20T16:33:48.402Z,9.80
2019-02-20T16:36:16.642Z,9.90
2019-02-20T16:38:44.924Z,9.90
2019-02-20T16:41:14.090Z,9.80
2019-02-20T16:43:42.417Z,9.80
2019-02-20T16:46:11.466Z,9.80
2019-02-20T16:48:39.780Z,9.80
2019-02-20T16:51:08.934Z,9.70
2019-02-20T16:53:37.253Z,9.70
2019-02-20T16:56:06.441Z,9.70
2019-02-20T16:58:34.735Z,9.70
2019-02-20T17:01:04.333Z,9.70
2019-02-20T17:03:33.380Z,9.70
2019-02-20T17:06:01.756Z,9.70
2019-02-20T17:08:30.135Z,9.70
2019-02-20T17:10:58.519Z,9.60
2019-02-20T17:13:26.922Z,9.50
2019-02-20T17:15:55.199Z,9.40
2019-02-20T17:18:24.258Z,9.40
2019-02-20T17:20:52.540Z,9.30
2019-02-20T17:23:20.835Z,9.40
2019-02-20T17:25:49.906Z,9.30
2019-02-20T17:28:18.206Z,9.30
2019-02-20T17:30:46.608Z,9.30
2019-02-20T17:33:15.679Z,9.30
2019-02-20T17:35:44.736Z,9.20
2019-02-20T17:38:13.060Z,9.20
2019-02-20T17:40:42.107Z,9.20
2019-02-20T17:43:10.388Z,9.20
2019-02-20T17:45:38.763Z,9.10
2019-02-20T17:48:07.091Z,9.10
2019-02-20T17:50:36.135Z,9.10
2019-02-20T17:53:04.458Z,9.00
2019-02-20T17:55:33.519Z,9.20
2019-02-20T17:58:02.495Z,9.10
2019-02-20T18:00:30.779Z,9.10
2019-02-20T18:02:59.116Z,9.10
2019-02-20T18:05:27.404Z,9.00
2019-02-20T18:07:56.436Z,9.10
2019-02-20T18:10:26.343Z,9.00
2019-02-20T18:12:54.724Z,9.00
2019-02-20T18:15:23.020Z,8.90
2019-02-20T18:17:51.317Z,8.90
2019-02-20T18:20:19.638Z,8.80
2019-02-20T18:22:47.930Z,8.80
2019-02-20T18:25:16.215Z,8.80
2019-02-20T18:27:44.530Z,8.80
2019-02-20T18:30:13.688Z,8.70
2019-02-20T18:32:42.061Z,8.70
2019-02-20T18:35:11.144Z,8.70
2019-02-20T18:37:39.448Z,8.60
2019-02-20T18:40:10.603Z,8.60
2019-02-20T18:42:39.705Z,8.70
2019-02-20T18:45:07.971Z,8.70
2019-02-20T18:47:37.032Z,8.80
2019-02-20T18:50:05.390Z,8.80
2019-02-20T18:52:33.723Z,8.80
2019-02-20T18:55:05.947Z,8.50
2019-02-20T18:57:31.601Z,8.50
2019-02-20T19:00:00.652Z,8.30
2019-02-20T19:02:28.916Z,8.30
2019-02-20T19:04:57.254Z,8.30
2019-02-20T19:07:25.577Z,8.40
2019-02-20T19:09:53.953Z,8.40
2019-02-20T19:12:27.920Z,8.50
2019-02-20T19:18:07.159Z,8.50
2019-02-20T19:20:36.343Z,8.40
2019-02-20T19:23:10.369Z,8.40
2019-02-20T19:25:43.119Z,8.50
2019-02-20T19:28:18.954Z,8.40
2019-02-20T19:30:55.967Z,8.40
2019-02-20T19:36:42.457Z,8.30
2019-02-20T19:39:16.389Z,8.40
2019-02-20T19:45:02.721Z,8.20
2019-02-20T19:47:37.711Z,8.20
2019-02-20T19:50:24.377Z,8.10
2019-02-20T19:52:52.630Z,8.10
2019-02-20T19:55:24.653Z,8.00
2019-02-20T19:57:57.640Z,8.00
2019-02-20T20:00:28.881Z,8.00
2019-02-20T20:03:06.619Z,8.10
2019-02-20T20:05:39.259Z,8.00
2019-02-20T20:08:16.208Z,8.00
2019-02-20T20:11:01.056Z,8.00
2019-02-20T20:13:30.128Z,7.90
2019-02-20T20:15:58.489Z,7.90
2019-02-20T20:18:48.801Z,7.80
2019-02-20T20:21:20.839Z,7.80
2019-02-20T20:23:58.536Z,7.80
2019-02-20T20:26:50.790Z,7.80
2019-02-20T20:32:28.775Z,7.80
2019-02-20T20:35:00.600Z,7.80
2019-02-20T20:37:30.596Z,7.80
2019-02-20T20:40:09.508Z,7.80
2019-02-20T20:45:38.221Z,7.80
2019-02-20T20:48:15.306Z,7.80
2019-02-20T20:50:46.104Z,7.70
2019-02-20T20:56:20.789Z,7.60
2019-02-20T20:58:51.799Z,7.50
2019-02-20T21:01:30.792Z,7.50
2019-02-20T21:04:07.866Z,7.40
2019-02-20T21:12:49.624Z,7.30
2019-02-20T21:15:38.491Z,7.30
2019-02-20T21:18:18.410Z,7.30
2019-02-20T21:20:47.587Z,7.30
2019-02-20T21:26:33.416Z,7.30
2019-02-20T21:29:15.271Z,7.30
2019-02-20T21:31:53.753Z,7.30
2019-02-20T21:34:23.580Z,7.30
2019-02-20T21:37:01.741Z,7.40
2019-02-20T21:39:33.785Z,7.40
2019-02-20T21:42:12.639Z,7.40
2019-02-20T21:44:43.534Z,7.30
2019-02-20T21:47:16.057Z,7.40
2019-02-20T21:52:49.517Z,7.40
2019-02-20T21:58:29.336Z,7.50
2019-02-20T22:04:24.809Z,7.40
2019-02-20T22:07:04.749Z,7.30
2019-02-20T22:09:34.531Z,7.30
2019-02-20T22:12:18.609Z,7.30
2019-02-20T22:15:20.372Z,7.20
2019-02-20T22:17:52.653Z,7.40
2019-02-20T22:23:36.501Z,7.50
2019-02-20T22:26:09.477Z,7.50
2019-02-20T22:28:40.282Z,7.50
2019-02-20T22:31:22.291Z,7.40
2019-02-20T22:33:51.953Z,7.30
2019-02-20T22:36:20.283Z,7.20
2019-02-20T22:39:00.760Z,7.20
2019-02-20T22:41:41.739Z,7.10
2019-02-20T22:47:14.301Z,7.00
2019-02-20T22:49:48.076Z,7.00
2019-02-20T22:52:17.097Z,6.90
2019-02-20T22:54:55.288Z,6.90
2019-02-20T22:57:41.151Z,7.00
2019-02-20T23:00:20.489Z,6.90
2019-02-20T23:03:00.896Z,6.80
2019-02-20T23:05:47.875Z,6.80
2019-02-20T23:08:36.723Z,6.60
2019-02-20T23:11:07.527Z,6.60
2019-02-20T23:13:48.357Z,6.60
2019-02-20T23:16:16.761Z,6.50
2019-02-20T23:18:45.103Z,6.60
2019-02-20T23:21:13.392Z,6.60
2019-02-20T23:23:41.816Z,6.60
2019-02-20T23:26:10.909Z,6.60
2019-02-20T23:28:39.974Z,6.60
2019-02-20T23:31:08.332Z,6.50
2019-02-20T23:33:36.718Z,6.40
2019-02-20T23:36:04.987Z,6.50
2019-02-20T23:38:33.262Z,6.40
2019-02-20T23:41:01.637Z,6.50
2019-02-20T23:43:30.016Z,6.40
2019-02-20T23:45:58.386Z,6.50
2019-02-20T23:48:26.784Z,6.50
2019-02-20T23:50:55.051Z,6.50
2019-02-20T23:53:23.337Z,6.50
2019-02-20T23:55:51.695Z,6.50
2019-02-20T23:58:19.981Z,6.50
